createdAt,value
2022-09-12T00:00:45.303Z,60.00
2022-09-12T00:03:12.398Z,60.22
2022-09-12T00:05:43.799Z,60.06
2022-09-12T00:08:10.969Z,60.08
2022-09-12T00:10:39.697Z,59.94
2022-09-12T00:13:07.103Z,59.96
2022-09-12T00:15:44.674Z,59.98
2022-09-12T00:18:15.499Z,59.74
2022-09-12T00:20:43.262Z,60.06
2022-09-12T00:23:10.383Z,59.94
2022-09-12T00:25:47.061Z,60.14
2022-09-12T00:28:14.904Z,59.89
2022-09-12T00:30:42.540Z,59.95
2022-09-12T00:33:10.045Z,60.08
2022-09-12T00:35:47.109Z,60.00
2022-09-12T00:38:14.359Z,60.24
2022-09-12T00:40:41.657Z,60.19
2022-09-12T00:43:27.617Z,60.10
2022-09-12T00:45:54.724Z,59.92
2022-09-12T00:48:22.627Z,60.24
2022-09-12T00:50:49.815Z,60.07
2022-09-12T00:53:16.913Z,59.97
2022-09-12T00:55:44.436Z,60.22
2022-09-12T00:58:22.602Z,60.09
2022-09-12T01:00:49.958Z,60.40
2022-09-12T01:03:18.759Z,60.22
2022-09-12T01:06:09.191Z,60.30
2022-09-12T01:08:37.449Z,60.50
2022-09-12T01:11:05.386Z,60.28
2022-09-12T01:13:33.899Z,59.90
2022-09-12T01:16:02.791Z,60.31
2022-09-12T01:18:40.395Z,60.43
2022-09-12T01:21:30.444Z,60.21
2022-09-12T01:24:03.566Z,60.08
2022-09-12T01:26:49.164Z,60.12
2022-09-12T01:29:25.539Z,60.04
2022-09-12T01:31:59.805Z,60.01
2022-09-12T01:34:30.524Z,59.95
2022-09-12T01:36:59.908Z,60.17
2022-09-12T01:39:51.163Z,60.19
2022-09-12T01:42:21.076Z,60.06
2022-09-12T01:44:54.933Z,60.01
2022-09-12T01:47:29.780Z,60.02
2022-09-12T01:50:08.971Z,60.20
2022-09-12T01:52:53.818Z,60.30
2022-09-12T01:55:21.061Z,59.97
2022-09-12T01:58:06.743Z,60.21
2022-09-12T02:00:34.723Z,60.48
2022-09-12T02:03:03.222Z,60.24
2022-09-12T02:05:30.295Z,60.06
2022-09-12T02:07:59.871Z,60.24
2022-09-12T02:10:32.511Z,60.06
2022-09-12T02:13:13.391Z,59.98
2022-09-12T02:15:42.008Z,60.20
2022-09-12T02:18:12.969Z,59.95
2022-09-12T02:20:48.857Z,59.92
2022-09-12T02:23:17.575Z,60.14
2022-09-12T02:25:44.916Z,59.96
2022-09-12T02:28:33.081Z,59.95
2022-09-12T02:31:03.082Z,59.95
2022-09-12T02:33:32.533Z,60.10
2022-09-12T02:36:04.084Z,60.34
2022-09-12T02:38:33.460Z,60.47
2022-09-12T02:41:00.580Z,59.93
2022-09-12T02:43:27.725Z,60.14
2022-09-12T02:45:54.916Z,59.87
2022-09-12T02:48:23.719Z,60.11
2022-09-12T02:50:50.781Z,60.05
2022-09-12T02:53:18.006Z,59.87
2022-09-12T02:55:45.143Z,60.01
2022-09-12T02:58:13.186Z,59.97
2022-09-12T03:01:03.650Z,59.85
2022-09-12T03:03:50.515Z,59.90
2022-09-12T03:06:24.933Z,59.99
2022-09-12T03:09:04.747Z,60.30
2022-09-12T03:11:53.887Z,60.19
2022-09-12T03:14:24.003Z,59.99
2022-09-12T03:16:51.831Z,59.84
2022-09-12T03:19:30.917Z,60.14
2022-09-12T03:22:02.020Z,60.21
2022-09-12T03:24:33.186Z,60.31
2022-09-12T03:27:20.017Z,60.09
2022-09-12T03:29:47.946Z,60.06
2022-09-12T03:32:15.080Z,60.13
2022-09-12T03:34:42.204Z,60.15
2022-09-12T03:37:09.294Z,60.03
2022-09-12T03:39:36.419Z,60.04
2022-09-12T03:42:03.585Z,60.00
2022-09-12T03:44:30.732Z,60.07
2022-09-12T03:46:58.534Z,60.01
2022-09-12T03:49:25.626Z,59.83
2022-09-12T03:51:52.742Z,59.85
2022-09-12T03:54:19.859Z,60.13
2022-09-12T03:56:46.989Z,60.13
2022-09-12T03:59:14.144Z,60.08
2022-09-12T04:01:42.303Z,60.20
2022-09-12T04:04:09.942Z,59.96
2022-09-12T04:06:37.068Z,59.74
2022-09-12T04:09:04.204Z,60.08
2022-09-12T04:11:32.303Z,59.99
2022-09-12T04:14:02.454Z,59.99
2022-09-12T04:16:29.638Z,60.05
2022-09-12T04:18:56.791Z,60.19
2022-09-12T04:21:23.990Z,60.02
2022-09-12T04:23:51.131Z,60.21
2022-09-12T04:26:18.484Z,60.08
2022-09-12T04:28:46.456Z,60.06
2022-09-12T04:31:18.028Z,60.21
2022-09-12T04:33:45.278Z,60.06
2022-09-12T04:36:16.687Z,60.00
2022-09-12T04:38:44.354Z,59.83
2022-09-12T04:41:11.575Z,59.90
2022-09-12T04:43:38.727Z,59.85
2022-09-12T04:46:11.405Z,59.98
2022-09-12T04:48:38.726Z,59.82
2022-09-12T04:51:10.424Z,59.92
2022-09-12T04:53:39.077Z,60.22
2022-09-12T04:56:07.056Z,59.93
2022-09-12T04:58:34.247Z,59.91
2022-09-12T05:01:13.882Z,59.77
2022-09-12T05:03:43.331Z,60.04
2022-09-12T05:06:11.468Z,59.78
2022-09-12T05:08:38.570Z,59.40
2022-09-12T05:11:06.983Z,59.74
2022-09-12T05:13:34.169Z,59.71
2022-09-12T05:16:01.688Z,59.64
2022-09-12T05:18:28.828Z,59.69
2022-09-12T05:20:55.943Z,59.83
2022-09-12T05:23:23.950Z,59.76
2022-09-12T05:25:52.464Z,59.83
2022-09-12T05:28:19.596Z,59.93
2022-09-12T05:30:46.924Z,59.83
2022-09-12T05:33:14.602Z,59.92
2022-09-12T05:35:41.748Z,59.89
2022-09-12T05:38:08.900Z,60.11
2022-09-12T05:40:36.034Z,60.06
2022-09-12T05:43:03.540Z,60.38
2022-09-12T05:45:30.753Z,60.21
2022-09-12T05:47:57.996Z,60.26
2022-09-12T05:50:25.660Z,60.38
2022-09-12T05:52:52.747Z,60.40
2022-09-12T05:55:19.860Z,60.73
2022-09-12T05:57:46.956Z,60.47
2022-09-12T06:00:14.962Z,60.59
2022-09-12T06:02:42.720Z,60.56
2022-09-12T06:05:09.854Z,60.52
2022-09-12T06:07:37.030Z,60.63
2022-09-12T06:10:05.374Z,60.77
2022-09-12T06:12:32.567Z,61.14
2022-09-12T06:14:59.691Z,61.19
2022-09-12T06:17:26.854Z,61.08
2022-09-12T06:19:54.107Z,60.96
2022-09-12T06:22:21.202Z,60.95
2022-09-12T06:24:48.298Z,60.97
2022-09-12T06:27:15.408Z,60.98
2022-09-12T06:29:42.542Z,60.67
2022-09-12T06:32:10.523Z,60.59
2022-09-12T06:34:37.719Z,60.72
2022-09-12T06:37:04.818Z,61.71
2022-09-12T06:39:32.589Z,61.86
2022-09-12T06:41:59.694Z,62.41
2022-09-12T06:44:34.271Z,62.16
2022-09-12T06:47:01.407Z,62.04
2022-09-12T06:49:29.013Z,61.84
2022-09-12T06:51:56.129Z,62.36
2022-09-12T06:54:23.548Z,61.95
2022-09-12T06:56:50.653Z,62.68
2022-09-12T06:59:18.313Z,62.26
2022-09-12T07:01:45.614Z,62.73
2022-09-12T07:04:13.386Z,62.52
2022-09-12T07:06:41.140Z,62.67
2022-09-12T07:09:09.833Z,62.56
2022-09-12T07:11:38.064Z,63.37
2022-09-12T07:14:05.680Z,63.33
2022-09-12T07:16:32.832Z,63.88
2022-09-12T07:19:00.686Z,63.10
2022-09-12T07:21:27.923Z,63.11
2022-09-12T07:23:58.190Z,63.84
2022-09-12T07:26:26.252Z,63.73
2022-09-12T07:29:08.224Z,63.74
2022-09-12T07:31:44.069Z,63.50
2022-09-12T07:34:11.234Z,63.66
2022-09-12T07:36:39.489Z,63.84
2022-09-12T07:39:06.705Z,64.03
2022-09-12T07:41:34.014Z,64.11
2022-09-12T07:44:01.897Z,64.17
2022-09-12T07:46:29.672Z,64.22
2022-09-12T07:48:57.219Z,64.46
2022-09-12T07:51:24.555Z,64.67
2022-09-12T07:53:51.881Z,64.81
2022-09-12T07:56:19.843Z,64.59
2022-09-12T07:58:47.922Z,64.72
2022-09-12T08:01:19.082Z,64.57
2022-09-12T08:03:49.623Z,64.81
2022-09-12T08:06:20.259Z,65.18
2022-09-12T08:08:47.824Z,65.18
2022-09-12T08:11:15.634Z,65.30
2022-09-12T08:13:42.924Z,65.21
2022-09-12T08:16:13.905Z,65.74
2022-09-12T08:18:41.134Z,65.56
2022-09-12T08:21:10.311Z,65.64
2022-09-12T08:23:37.523Z,65.78
2022-09-12T08:26:06.398Z,66.06
2022-09-12T08:28:34.284Z,65.75
2022-09-12T08:31:05.221Z,65.96
2022-09-12T08:33:33.593Z,66.14
2022-09-12T08:36:08.008Z,66.27
2022-09-12T08:38:38.136Z,66.14
2022-09-12T08:41:10.409Z,65.99
2022-09-12T08:43:40.617Z,66.61
2022-09-12T08:46:08.947Z,66.14
2022-09-12T08:48:36.030Z,66.54
2022-09-12T08:51:05.097Z,66.69
2022-09-12T08:53:34.565Z,66.50
2022-09-12T08:56:01.996Z,66.56
2022-09-12T08:58:29.172Z,66.67
2022-09-12T09:01:10.112Z,66.57
2022-09-12T09:03:40.340Z,66.56
2022-09-12T09:06:10.234Z,66.76
2022-09-12T09:08:40.075Z,66.71
2022-09-12T09:11:09.961Z,66.77
2022-09-12T09:14:01.874Z,66.66
2022-09-12T09:16:38.606Z,66.65
2022-09-12T09:19:06.664Z,67.00
2022-09-12T09:21:41.427Z,66.68
2022-09-12T09:24:12.074Z,66.91
2022-09-12T09:26:54.308Z,66.69
2022-09-12T09:29:22.815Z,66.94
2022-09-12T09:31:52.123Z,66.90
2022-09-12T09:34:20.395Z,66.82
2022-09-12T09:36:57.657Z,66.93
2022-09-12T09:39:31.169Z,67.04
2022-09-12T09:42:07.394Z,66.93
2022-09-12T09:44:36.504Z,66.84
2022-09-12T09:47:03.656Z,67.00
2022-09-12T09:49:31.458Z,67.47
2022-09-12T09:52:00.699Z,67.27
2022-09-12T09:54:38.075Z,67.28
2022-09-12T09:57:05.332Z,67.17
2022-09-12T09:59:33.718Z,67.45
2022-09-12T10:02:03.789Z,67.06
2022-09-12T10:04:31.779Z,67.27
2022-09-12T10:07:02.419Z,67.47
2022-09-12T10:09:30.426Z,67.37
2022-09-12T10:11:57.637Z,67.08
2022-09-12T10:14:37.935Z,67.57
2022-09-12T10:17:24.096Z,67.82
2022-09-12T10:20:10.666Z,67.19
2022-09-12T10:22:38.640Z,67.50
2022-09-12T10:25:05.943Z,67.64
2022-09-12T10:27:33.086Z,67.49
2022-09-12T10:30:07.272Z,67.83
2022-09-12T10:32:41.460Z,67.65
2022-09-12T10:35:15.803Z,67.37
2022-09-12T10:37:52.295Z,67.46
2022-09-12T10:40:26.393Z,67.87
2022-09-12T10:42:54.265Z,67.84
2022-09-12T10:45:26.364Z,67.76
2022-09-12T10:47:53.790Z,67.72
2022-09-12T10:50:23.957Z,68.16
2022-09-12T10:52:51.159Z,68.14
2022-09-12T10:55:18.940Z,67.84
2022-09-12T10:58:00.041Z,67.79
2022-09-12T11:00:30.594Z,67.82
2022-09-12T11:02:58.862Z,68.04
2022-09-12T11:05:41.271Z,67.97
2022-09-12T11:08:08.600Z,67.94
2022-09-12T11:10:44.637Z,68.01
2022-09-12T11:13:17.819Z,67.90
2022-09-12T11:15:45.941Z,67.93
2022-09-12T11:18:25.225Z,67.85
2022-09-12T11:21:02.105Z,67.82
2022-09-12T11:23:42.353Z,67.73
2022-09-12T11:26:19.277Z,67.75
2022-09-12T11:28:47.388Z,67.43
2022-09-12T11:31:22.587Z,67.54
2022-09-12T11:33:56.526Z,67.55
2022-09-12T11:36:45.686Z,67.76
2022-09-12T11:39:13.392Z,67.58
2022-09-12T11:41:44.198Z,67.75
2022-09-12T11:44:14.145Z,67.45
2022-09-12T11:46:46.723Z,67.67
2022-09-12T11:49:22.393Z,67.68
2022-09-12T11:51:50.953Z,67.48
2022-09-12T11:54:23.326Z,67.37
2022-09-12T11:56:51.763Z,67.49
2022-09-12T11:59:45.179Z,67.39
2022-09-12T12:02:31.536Z,67.39
2022-09-12T12:04:58.608Z,67.56
2022-09-12T12:07:28.052Z,67.90
2022-09-12T12:09:55.712Z,67.62
2022-09-12T12:12:24.845Z,67.33
2022-09-12T12:14:52.308Z,67.46
2022-09-12T12:17:20.038Z,67.27
2022-09-12T12:19:47.691Z,67.30
2022-09-12T12:22:16.631Z,67.69
2022-09-12T12:25:08.224Z,67.69
2022-09-12T12:27:56.263Z,67.93
2022-09-12T12:30:43.635Z,67.84
2022-09-12T12:33:10.890Z,67.78
2022-09-12T12:35:40.108Z,67.55
2022-09-12T12:38:25.670Z,67.90
2022-09-12T12:40:52.814Z,67.98
2022-09-12T12:43:31.841Z,67.44
2022-09-12T12:45:59.837Z,67.77
2022-09-12T12:48:27.011Z,67.43
2022-09-12T12:50:54.175Z,67.27
2022-09-12T12:53:25.195Z,67.60
2022-09-12T12:55:52.789Z,67.62
2022-09-12T12:58:19.933Z,67.71
2022-09-12T13:00:47.227Z,67.56
2022-09-12T13:03:28.536Z,67.64
2022-09-12T13:05:59.643Z,67.40
2022-09-12T13:08:28.812Z,67.55
2022-09-12T13:11:07.719Z,67.43
2022-09-12T13:13:39.075Z,67.74
2022-09-12T13:16:06.368Z,67.64
2022-09-12T13:18:53.744Z,67.73
2022-09-12T13:21:21.602Z,67.59
2022-09-12T13:24:04.717Z,67.65
2022-09-12T13:26:35.620Z,67.71
2022-09-12T13:29:09.394Z,67.63
2022-09-12T13:31:37.062Z,67.81
2022-09-12T13:34:05.309Z,67.53
2022-09-12T13:36:44.838Z,67.77
2022-09-12T13:39:21.744Z,67.83
2022-09-12T13:41:54.920Z,68.00
2022-09-12T13:44:23.057Z,67.66
2022-09-12T13:46:51.153Z,67.87
2022-09-12T13:49:23.297Z,67.95
2022-09-12T13:52:00.392Z,68.13
2022-09-12T13:54:29.586Z,68.19
2022-09-12T13:56:56.964Z,68.48
2022-09-12T13:59:24.842Z,68.14
2022-09-12T14:01:52.283Z,68.13
2022-09-12T14:04:44.431Z,68.13
2022-09-12T14:07:15.450Z,68.50
2022-09-12T14:09:44.539Z,68.57
2022-09-12T14:12:34.910Z,68.58
2022-09-12T14:15:02.075Z,68.54
2022-09-12T14:17:34.767Z,68.64
2022-09-12T14:20:03.757Z,68.50
2022-09-12T14:22:31.006Z,68.56
2022-09-12T14:24:58.752Z,68.67
2022-09-12T14:27:37.334Z,68.89
2022-09-12T14:30:07.493Z,68.66
2022-09-12T14:32:35.066Z,68.86
2022-09-12T14:35:05.213Z,68.69
2022-09-12T14:37:34.914Z,68.68
2022-09-12T14:40:02.744Z,68.86
2022-09-12T14:42:30.420Z,68.88
2022-09-12T14:44:58.494Z,68.95
2022-09-12T14:47:26.200Z,68.88
2022-09-12T14:49:53.342Z,68.89
2022-09-12T14:52:24.887Z,69.00
2022-09-12T14:54:59.103Z,68.96
2022-09-12T14:57:28.955Z,68.83
2022-09-12T15:00:05.398Z,69.14
2022-09-12T15:02:33.970Z,69.59
2022-09-12T15:05:04.073Z,69.19
2022-09-12T15:07:31.152Z,69.35
2022-09-12T15:10:15.526Z,69.31
2022-09-12T15:12:42.664Z,69.19
2022-09-12T15:15:18.045Z,69.32
2022-09-12T15:17:45.151Z,69.26
2022-09-12T15:20:14.997Z,69.41
2022-09-12T15:22:42.085Z,69.53
2022-09-12T15:25:09.787Z,69.36
2022-09-12T15:27:40.809Z,69.49
2022-09-12T15:30:08.631Z,69.24
2022-09-12T15:32:35.884Z,69.59
2022-09-12T15:35:03.022Z,69.55
2022-09-12T15:37:31.079Z,69.50
2022-09-12T15:39:58.248Z,69.65
2022-09-12T15:42:27.362Z,69.58
2022-09-12T15:44:54.569Z,69.65
2022-09-12T15:47:23.090Z,69.94
2022-09-12T15:49:50.624Z,70.06
2022-09-12T15:52:17.747Z,69.95
2022-09-12T15:54:44.840Z,69.75
2022-09-12T15:57:11.963Z,69.62
2022-09-12T15:59:39.031Z,69.87
2022-09-12T16:02:06.232Z,69.78
2022-09-12T16:04:33.353Z,69.69
2022-09-12T16:07:00.486Z,69.88
2022-09-12T16:09:27.675Z,69.74
2022-09-12T16:11:55.011Z,69.93
2022-09-12T16:14:22.131Z,69.77
2022-09-12T16:16:53.363Z,69.80
2022-09-12T16:19:20.688Z,70.08
2022-09-12T16:21:47.847Z,69.76
2022-09-12T16:24:15.088Z,69.84
2022-09-12T16:26:42.554Z,69.99
2022-09-12T16:29:10.606Z,69.76
2022-09-12T16:31:40.324Z,70.04
2022-09-12T16:34:07.595Z,69.99
2022-09-12T16:36:34.770Z,69.73
2022-09-12T16:39:01.894Z,70.00
2022-09-12T16:41:29.098Z,69.90
2022-09-12T16:43:56.438Z,69.87
2022-09-12T16:46:24.667Z,70.02
2022-09-12T16:48:53.027Z,70.29
2022-09-12T16:51:21.297Z,69.92
2022-09-12T16:53:48.398Z,70.13
2022-09-12T16:56:15.578Z,69.91
2022-09-12T16:58:52.467Z,69.94
2022-09-12T17:01:23.708Z,69.80
2022-09-12T17:03:54.390Z,69.91
2022-09-12T17:06:22.786Z,69.77
2022-09-12T17:08:50.327Z,69.97
2022-09-12T17:11:23.037Z,70.14
2022-09-12T17:14:11.758Z,70.22
2022-09-12T17:16:39.942Z,70.07
2022-09-12T17:19:07.128Z,70.21
2022-09-12T17:21:34.355Z,70.04
2022-09-12T17:24:01.514Z,70.24
2022-09-12T17:26:28.660Z,70.26
2022-09-12T17:28:55.810Z,70.16
2022-09-12T17:31:23.095Z,70.12
2022-09-12T17:33:50.862Z,69.85
2022-09-12T17:36:18.198Z,69.91
2022-09-12T17:38:45.759Z,69.62
2022-09-12T17:41:17.601Z,69.73
2022-09-12T17:43:49.039Z,69.50
2022-09-12T17:46:19.317Z,69.52
2022-09-12T17:48:52.821Z,69.38
2022-09-12T17:51:20.098Z,69.25
2022-09-12T17:53:47.530Z,68.81
2022-09-12T17:56:15.616Z,69.07
2022-09-12T17:58:42.764Z,68.69
2022-09-12T18:01:29.948Z,68.50
2022-09-12T18:03:57.325Z,68.41
2022-09-12T18:06:24.516Z,68.07
2022-09-12T18:08:51.590Z,67.23
2022-09-12T18:11:18.695Z,67.68
2022-09-12T18:13:45.935Z,67.20
2022-09-12T18:16:13.314Z,67.04
2022-09-12T18:18:40.452Z,67.26
2022-09-12T18:21:08.407Z,67.20
2022-09-12T18:23:38.295Z,67.31
2022-09-12T18:26:06.256Z,67.19
2022-09-12T18:28:33.962Z,66.79
2022-09-12T18:31:01.922Z,66.94
2022-09-12T18:33:32.141Z,66.56
2022-09-12T18:36:03.696Z,66.74
2022-09-12T18:38:31.105Z,66.66
2022-09-12T18:41:03.990Z,66.57
2022-09-12T18:43:31.220Z,66.43
2022-09-12T18:46:03.157Z,66.40
2022-09-12T18:48:31.519Z,66.29
2022-09-12T18:51:05.672Z,66.05
2022-09-12T18:53:33.327Z,65.91
2022-09-12T18:56:01.307Z,66.17
2022-09-12T18:58:28.590Z,65.96
2022-09-12T19:00:55.845Z,66.26
2022-09-12T19:03:23.081Z,65.26
2022-09-12T19:05:50.277Z,65.79
2022-09-12T19:08:17.554Z,65.92
2022-09-12T19:10:44.731Z,66.13
2022-09-12T19:13:11.825Z,65.60
2022-09-12T19:15:39.636Z,65.76
2022-09-12T19:18:06.851Z,65.79
2022-09-12T19:20:35.325Z,65.80
2022-09-12T19:23:02.596Z,65.56
2022-09-12T19:25:30.113Z,65.75
2022-09-12T19:27:57.229Z,65.71
2022-09-12T19:30:24.335Z,65.42
2022-09-12T19:32:51.446Z,65.47
2022-09-12T19:35:18.515Z,65.57
2022-09-12T19:37:45.635Z,65.23
2022-09-12T19:40:12.768Z,65.26
2022-09-12T19:42:39.873Z,65.45
2022-09-12T19:45:07.025Z,65.12
2022-09-12T19:47:34.104Z,65.52
2022-09-12T19:50:01.228Z,65.27
2022-09-12T19:52:28.297Z,65.60
2022-09-12T19:54:55.538Z,65.58
2022-09-12T19:57:23.520Z,65.47
2022-09-12T19:59:50.661Z,65.30
2022-09-12T20:02:17.959Z,65.16
2022-09-12T20:04:45.449Z,65.40
2022-09-12T20:07:12.680Z,65.57
2022-09-12T20:09:39.883Z,64.91
2022-09-12T20:12:06.991Z,65.20
2022-09-12T20:14:34.214Z,65.04
2022-09-12T20:17:01.869Z,65.20
2022-09-12T20:19:28.992Z,65.18
2022-09-12T20:21:56.095Z,65.23
2022-09-12T20:24:23.190Z,65.46
2022-09-12T20:26:50.343Z,65.42
2022-09-12T20:29:17.494Z,65.52
2022-09-12T20:31:44.684Z,65.20
2022-09-12T20:34:15.130Z,65.42
2022-09-12T20:36:42.261Z,65.48
2022-09-12T20:39:12.986Z,65.42
2022-09-12T20:41:40.057Z,65.41
2022-09-12T20:44:07.184Z,65.55
2022-09-12T20:46:34.301Z,65.54
2022-09-12T20:49:01.483Z,65.61
2022-09-12T20:51:30.253Z,65.41
2022-09-12T20:53:57.846Z,65.37
2022-09-12T20:56:26.625Z,65.87
2022-09-12T20:58:54.181Z,65.41
2022-09-12T21:01:21.369Z,65.57
2022-09-12T21:03:48.613Z,65.40
2022-09-12T21:06:18.555Z,65.46
2022-09-12T21:08:46.085Z,65.32
2022-09-12T21:11:13.442Z,65.19
2022-09-12T21:13:40.559Z,65.21
2022-09-12T21:16:11.555Z,65.49
2022-09-12T21:18:38.886Z,65.02
2022-09-12T21:21:06.035Z,65.09
2022-09-12T21:23:33.549Z,63.72
2022-09-12T21:26:00.605Z,64.57
2022-09-12T21:28:27.776Z,64.43
2022-09-12T21:30:57.466Z,64.34
2022-09-12T21:33:24.944Z,63.77
2022-09-12T21:35:52.102Z,63.91
2022-09-12T21:38:19.204Z,64.16
2022-09-12T21:40:46.569Z,63.95
2022-09-12T21:43:13.961Z,64.04
2022-09-12T21:45:41.060Z,63.95
2022-09-12T21:48:08.141Z,63.30
2022-09-12T21:50:35.254Z,63.79
2022-09-12T21:53:02.428Z,63.33
2022-09-12T21:55:29.677Z,63.66
2022-09-12T21:57:59.090Z,62.21
2022-09-12T22:00:26.521Z,60.84
2022-09-12T22:02:53.789Z,62.73
2022-09-12T22:05:22.286Z,62.52
2022-09-12T22:07:49.406Z,62.37
2022-09-12T22:10:16.574Z,62.92
2022-09-12T22:12:46.116Z,62.85
2022-09-12T22:15:38.999Z,62.67
2022-09-12T22:18:00.608Z,63.03
2022-09-12T22:20:27.785Z,61.94
2022-09-12T22:23:13.566Z,62.89
2022-09-12T22:25:40.715Z,62.71
2022-09-12T22:28:11.604Z,62.50
2022-09-12T22:30:38.757Z,61.97
2022-09-12T22:33:08.456Z,60.84
2022-09-12T22:35:36.228Z,61.71
2022-09-12T22:38:03.637Z,59.98
2022-09-12T22:40:30.758Z,62.30
2022-09-12T22:42:57.833Z,62.44
2022-09-12T22:45:24.976Z,61.74
2022-09-12T22:47:52.092Z,62.34
2022-09-12T22:50:19.184Z,62.25
2022-09-12T22:52:46.691Z,61.97
2022-09-12T22:55:13.769Z,62.23
2022-09-12T22:57:41.526Z,62.05
2022-09-12T23:00:10.638Z,61.78
2022-09-12T23:02:38.141Z,60.51
2022-09-12T23:05:05.897Z,61.60
2022-09-12T23:07:33.527Z,61.67
2022-09-12T23:10:00.686Z,61.65
2022-09-12T23:12:27.860Z,61.16
2022-09-12T23:14:55.064Z,61.02
2022-09-12T23:17:22.296Z,61.22
2022-09-12T23:19:49.367Z,61.80
2022-09-12T23:22:16.484Z,60.97
2022-09-12T23:24:43.632Z,60.62
2022-09-12T23:27:10.751Z,60.73
2022-09-12T23:29:37.868Z,61.48
2022-09-12T23:32:05.035Z,61.97
2022-09-12T23:34:33.566Z,61.68
2022-09-12T23:37:00.647Z,62.14
2022-09-12T23:39:27.730Z,62.13
2022-09-12T23:41:55.030Z,62.33
2022-09-12T23:44:22.134Z,61.24
2022-09-12T23:46:49.208Z,62.13
2022-09-12T23:49:18.720Z,61.89
2022-09-12T23:52:04.358Z,62.18
2022-09-12T23:54:31.556Z,62.22
2022-09-12T23:56:58.725Z,62.54
2022-09-12T23:59:25.786Z,62.21
